createdAt,value
2018-06-20T00:00:18.896Z,99.90
2018-06-20T00:01:22.905Z,99.90
2018-06-20T00:02:27.017Z,99.90
2018-06-20T00:03:31.119Z,99.90
2018-06-20T00:04:35.184Z,99.90
2018-06-20T00:05:39.282Z,99.90
2018-06-20T00:06:43.313Z,99.90
2018-06-20T00:07:47.449Z,99.90
2018-06-20T00:08:51.778Z,99.90
2018-06-20T00:09:55.854Z,99.90
2018-06-20T00:10:59.853Z,99.90
2018-06-20T00:12:05.064Z,99.90
2018-06-20T00:13:10.889Z,99.90
2018-06-20T00:14:14.846Z,99.90
2018-06-20T00:15:18.846Z,99.90
2018-06-20T00:16:22.955Z,99.90
2018-06-20T00:17:26.995Z,99.90
2018-06-20T00:19:34.659Z,99.90
2018-06-20T00:20:38.658Z,99.90
2018-06-20T00:21:42.913Z,99.90
2018-06-20T00:23:50.523Z,99.90
2018-06-20T00:24:54.656Z,99.90
2018-06-20T00:25:58.639Z,99.90
2018-06-20T00:27:02.654Z,99.90
2018-06-20T00:28:06.689Z,99.90
2018-06-20T00:29:10.731Z,99.90
2018-06-20T00:30:14.790Z,99.90
2018-06-20T00:31:18.780Z,99.90
2018-06-20T00:32:22.772Z,99.90
2018-06-20T00:33:26.979Z,99.90
2018-06-20T00:34:30.983Z,99.90
2018-06-20T00:35:35.017Z,99.90
2018-06-20T00:36:39.068Z,99.90
2018-06-20T00:37:43.091Z,99.90
2018-06-20T00:38:47.143Z,99.90
2018-06-20T00:39:51.174Z,99.90
2018-06-20T00:40:55.194Z,99.90
2018-06-20T00:41:59.205Z,99.90
2018-06-20T00:43:03.215Z,99.90
2018-06-20T00:44:07.593Z,99.90
2018-06-20T00:45:11.716Z,99.90
2018-06-20T00:46:15.726Z,99.90
2018-06-20T00:47:19.885Z,99.90
2018-06-20T00:48:23.903Z,99.90
2018-06-20T00:49:27.967Z,99.90
2018-06-20T00:50:32.003Z,99.90
2018-06-20T00:51:36.061Z,99.90
2018-06-20T00:52:40.059Z,99.90
2018-06-20T00:53:44.088Z,99.90
2018-06-20T00:54:48.135Z,99.90
2018-06-20T00:56:03.808Z,99.90
2018-06-20T00:57:07.845Z,99.90
2018-06-20T00:59:15.509Z,99.90
2018-06-20T01:00:19.601Z,99.90
2018-06-20T01:01:23.908Z,99.90
2018-06-20T01:02:27.936Z,99.90
2018-06-20T01:03:31.937Z,99.90
2018-06-20T01:04:35.955Z,99.90
2018-06-20T01:05:40.035Z,99.90
2018-06-20T01:06:44.054Z,99.90
2018-06-20T01:07:48.078Z,99.90
2018-06-20T01:08:55.810Z,99.90
2018-06-20T01:09:59.835Z,99.90
2018-06-20T01:11:03.845Z,99.90
2018-06-20T01:12:07.859Z,99.90
2018-06-20T01:13:12.014Z,99.90
2018-06-20T01:14:16.130Z,99.90
2018-06-20T01:15:20.196Z,99.90
2018-06-20T01:16:24.424Z,99.90
2018-06-20T01:17:28.632Z,99.90
2018-06-20T01:18:33.042Z,99.90
2018-06-20T01:19:37.053Z,99.90
2018-06-20T01:20:41.082Z,99.90
2018-06-20T01:21:45.121Z,99.90
2018-06-20T01:22:49.118Z,99.90
2018-06-20T01:23:53.154Z,99.90
2018-06-20T01:24:57.413Z,99.90
2018-06-20T01:26:01.454Z,99.90
2018-06-20T01:27:05.530Z,99.90
2018-06-20T01:28:09.562Z,99.90
2018-06-20T01:29:13.594Z,99.90
2018-06-20T01:30:17.675Z,99.90
2018-06-20T01:31:21.735Z,99.90
2018-06-20T01:32:25.747Z,99.90
2018-06-20T01:33:29.775Z,99.90
2018-06-20T01:34:33.978Z,99.90
2018-06-20T01:35:37.988Z,99.90
2018-06-20T01:36:41.982Z,99.90
2018-06-20T01:37:46.027Z,99.90
2018-06-20T01:38:50.090Z,99.90
2018-06-20T01:39:54.183Z,99.90
2018-06-20T01:40:58.164Z,99.90
2018-06-20T01:42:02.140Z,99.90
2018-06-20T01:43:06.233Z,99.90
2018-06-20T01:44:10.417Z,99.90
2018-06-20T01:45:14.420Z,99.90
2018-06-20T01:47:22.063Z,99.90
2018-06-20T01:48:26.155Z,99.90
2018-06-20T01:49:30.189Z,99.90
2018-06-20T01:50:34.190Z,99.90
2018-06-20T01:51:38.205Z,99.90
2018-06-20T01:52:42.253Z,99.90
2018-06-20T01:53:46.251Z,99.90
2018-06-20T01:54:50.246Z,99.90
2018-06-20T01:55:54.262Z,99.90
2018-06-20T01:56:58.287Z,99.90
2018-06-20T01:58:02.293Z,99.90
2018-06-20T01:59:06.285Z,99.90
2018-06-20T02:00:10.280Z,99.90
2018-06-20T02:01:14.332Z,99.90
2018-06-20T02:02:18.362Z,99.90
2018-06-20T02:03:22.371Z,99.90
2018-06-20T02:04:26.421Z,99.90
2018-06-20T02:05:30.494Z,99.90
2018-06-20T02:06:34.524Z,99.90
2018-06-20T02:07:38.648Z,99.90
2018-06-20T02:08:42.724Z,99.90
2018-06-20T02:09:46.724Z,99.90
2018-06-20T02:10:50.778Z,99.90
2018-06-20T02:11:54.832Z,99.90
2018-06-20T02:12:58.906Z,99.90
2018-06-20T02:14:02.927Z,99.90
2018-06-20T02:15:07.028Z,99.90
2018-06-20T02:16:11.060Z,99.90
2018-06-20T02:18:18.929Z,99.90
2018-06-20T02:19:22.983Z,99.90
2018-06-20T02:20:27.028Z,99.90
2018-06-20T02:21:31.036Z,99.90
2018-06-20T02:22:35.074Z,99.90
2018-06-20T02:23:39.112Z,99.90
2018-06-20T02:24:43.179Z,99.90
2018-06-20T02:25:47.207Z,99.90
2018-06-20T02:26:51.219Z,99.90
2018-06-20T02:27:55.223Z,99.90
2018-06-20T02:28:59.281Z,99.90
2018-06-20T02:30:03.682Z,99.90
2018-06-20T02:31:07.847Z,99.90
2018-06-20T02:32:11.846Z,99.90
2018-06-20T02:33:15.863Z,99.90
2018-06-20T02:34:19.859Z,99.90
2018-06-20T02:35:23.940Z,99.90
2018-06-20T02:36:32.373Z,99.90
2018-06-20T02:37:36.640Z,99.90
2018-06-20T02:38:40.658Z,99.90
2018-06-20T02:39:44.649Z,99.90
2018-06-20T02:40:48.720Z,99.90
2018-06-20T02:41:52.701Z,99.90
2018-06-20T02:42:56.791Z,99.90
2018-06-20T02:44:00.762Z,99.90
2018-06-20T02:45:04.826Z,99.90
2018-06-20T02:46:08.855Z,99.90
2018-06-20T02:47:12.862Z,99.90
2018-06-20T02:48:16.918Z,99.90
2018-06-20T02:49:20.903Z,99.90
2018-06-20T02:50:24.999Z,99.90
2018-06-20T02:51:29.169Z,99.90
2018-06-20T02:52:33.203Z,99.90
2018-06-20T02:53:37.318Z,99.90
2018-06-20T02:54:41.335Z,99.90
2018-06-20T02:55:45.474Z,99.90
2018-06-20T02:56:49.483Z,99.90
2018-06-20T02:57:53.516Z,99.90
2018-06-20T02:58:57.493Z,99.90
2018-06-20T03:00:02.041Z,99.90
2018-06-20T03:01:06.239Z,99.90
2018-06-20T03:02:10.307Z,99.90
2018-06-20T03:03:14.353Z,99.90
2018-06-20T03:04:18.537Z,99.90
2018-06-20T03:05:22.579Z,99.90
2018-06-20T03:06:26.689Z,99.90
2018-06-20T03:07:30.717Z,99.90
2018-06-20T03:08:34.755Z,99.90
2018-06-20T03:09:38.777Z,99.90
2018-06-20T03:10:42.911Z,99.90
2018-06-20T03:11:46.923Z,99.90
2018-06-20T03:12:50.986Z,99.90
2018-06-20T03:13:55.018Z,99.90
2018-06-20T03:14:59.009Z,99.90
2018-06-20T03:16:03.037Z,99.90
2018-06-20T03:17:07.054Z,99.90
2018-06-20T03:18:11.067Z,99.90
2018-06-20T03:19:15.710Z,99.90
2018-06-20T03:20:19.751Z,99.90
2018-06-20T03:21:23.841Z,99.90
2018-06-20T03:22:27.840Z,99.90
2018-06-20T03:23:31.852Z,99.90
2018-06-20T03:24:35.840Z,99.90
2018-06-20T03:25:39.932Z,99.90
2018-06-20T03:26:43.911Z,99.90
2018-06-20T03:27:47.942Z,99.90
2018-06-20T03:28:51.938Z,99.90
2018-06-20T03:29:55.977Z,99.90
2018-06-20T03:30:59.953Z,99.90
2018-06-20T03:32:04.345Z,99.90
2018-06-20T03:33:08.378Z,99.90
2018-06-20T03:34:12.438Z,99.90
2018-06-20T03:35:16.428Z,99.90
2018-06-20T03:37:24.055Z,99.90
2018-06-20T03:38:28.109Z,99.90
2018-06-20T03:39:32.218Z,99.90
2018-06-20T03:40:36.245Z,99.90
2018-06-20T03:41:40.735Z,99.90
2018-06-20T03:42:44.746Z,99.90
2018-06-20T03:43:48.746Z,99.90
2018-06-20T03:44:52.780Z,99.90
2018-06-20T03:45:56.804Z,99.90
2018-06-20T03:47:00.847Z,99.90
2018-06-20T03:48:04.843Z,99.90
2018-06-20T03:49:08.838Z,99.90
2018-06-20T03:50:12.864Z,99.90
2018-06-20T03:51:16.912Z,99.90
2018-06-20T03:52:20.987Z,99.90
2018-06-20T03:53:25.003Z,99.90
2018-06-20T03:54:28.986Z,99.90
2018-06-20T03:55:33.046Z,99.90
2018-06-20T03:56:37.013Z,99.90
2018-06-20T03:57:41.151Z,99.90
2018-06-20T03:58:45.182Z,99.90
2018-06-20T03:59:49.212Z,99.90
2018-06-20T04:00:53.292Z,99.90
2018-06-20T04:01:57.301Z,99.90
2018-06-20T04:04:05.200Z,99.90
2018-06-20T04:05:09.248Z,99.90
2018-06-20T04:06:13.434Z,99.90
2018-06-20T04:07:17.503Z,99.90
2018-06-20T04:09:25.102Z,99.90
2018-06-20T04:10:29.087Z,99.90
2018-06-20T04:11:33.135Z,99.90
2018-06-20T04:12:37.250Z,99.90
2018-06-20T04:13:41.218Z,99.90
2018-06-20T04:14:45.208Z,99.90
2018-06-20T04:15:49.184Z,99.90
2018-06-20T04:16:53.273Z,99.90
2018-06-20T04:17:57.355Z,99.90
2018-06-20T04:19:01.387Z,99.90
2018-06-20T04:20:05.423Z,99.90
2018-06-20T04:21:11.042Z,99.90
2018-06-20T04:22:15.121Z,99.90
2018-06-20T04:23:19.148Z,99.90
2018-06-20T04:24:23.154Z,99.90
2018-06-20T04:25:27.234Z,99.90
2018-06-20T04:26:31.290Z,99.90
2018-06-20T04:27:35.327Z,99.90
2018-06-20T04:28:39.513Z,99.90
2018-06-20T04:29:43.548Z,99.90
2018-06-20T04:30:47.578Z,99.90
2018-06-20T04:31:51.635Z,99.90
2018-06-20T04:32:55.920Z,99.90
2018-06-20T04:33:59.968Z,99.90
2018-06-20T04:35:04.024Z,99.90
2018-06-20T04:36:08.193Z,99.90
2018-06-20T04:37:12.199Z,99.90
2018-06-20T04:38:16.258Z,99.90
2018-06-20T04:39:20.568Z,99.90
2018-06-20T04:40:24.640Z,99.90
2018-06-20T04:41:28.626Z,99.90
2018-06-20T04:42:32.675Z,99.90
2018-06-20T04:43:36.822Z,99.90
2018-06-20T04:44:40.950Z,99.90
2018-06-20T04:45:45.041Z,99.90
2018-06-20T04:46:49.083Z,99.90
2018-06-20T04:47:53.131Z,99.90
2018-06-20T04:48:57.213Z,99.90
2018-06-20T04:50:01.316Z,99.90
2018-06-20T04:51:05.356Z,99.90
2018-06-20T04:52:09.397Z,99.90
2018-06-20T04:53:13.454Z,99.90
2018-06-20T04:54:17.535Z,99.90
2018-06-20T04:55:21.585Z,99.90
2018-06-20T04:56:25.595Z,99.90
2018-06-20T04:57:29.636Z,99.90
2018-06-20T04:58:33.701Z,99.90
2018-06-20T04:59:37.694Z,99.90
2018-06-20T05:00:41.762Z,99.90
2018-06-20T05:01:45.794Z,99.90
2018-06-20T05:02:49.798Z,99.90
2018-06-20T05:03:53.826Z,99.90
2018-06-20T05:04:57.814Z,99.90
2018-06-20T05:06:01.808Z,99.90
2018-06-20T05:07:05.879Z,99.90
2018-06-20T05:08:10.215Z,99.90
2018-06-20T05:09:18.601Z,99.90
2018-06-20T05:10:22.631Z,99.90
2018-06-20T05:11:26.804Z,99.90
2018-06-20T05:12:30.870Z,99.90
2018-06-20T05:13:34.948Z,99.90
2018-06-20T05:14:39.175Z,99.90
2018-06-20T05:15:43.191Z,99.90
2018-06-20T05:16:47.227Z,99.90
2018-06-20T05:17:51.271Z,99.90
2018-06-20T05:18:55.406Z,99.90
2018-06-20T05:19:59.395Z,99.90
2018-06-20T05:21:03.427Z,99.90
2018-06-20T05:22:07.515Z,99.90
2018-06-20T05:23:11.542Z,99.90
2018-06-20T05:24:15.607Z,99.90
2018-06-20T05:25:19.635Z,99.90
2018-06-20T05:26:23.725Z,99.90
2018-06-20T05:27:27.764Z,99.90
2018-06-20T05:28:31.783Z,99.90
2018-06-20T05:29:35.776Z,99.90
2018-06-20T05:30:39.767Z,99.90
2018-06-20T05:31:43.817Z,99.90
2018-06-20T05:32:47.928Z,99.90
2018-06-20T05:33:51.905Z,99.90
2018-06-20T05:34:55.935Z,99.90
2018-06-20T05:35:59.995Z,99.90
2018-06-20T05:37:04.064Z,99.90
2018-06-20T05:38:08.126Z,99.90
2018-06-20T05:40:16.137Z,99.90
2018-06-20T05:41:20.114Z,99.90
2018-06-20T05:42:24.115Z,99.90
2018-06-20T05:43:28.149Z,99.90
2018-06-20T05:44:32.248Z,99.90
2018-06-20T05:45:36.279Z,99.90
2018-06-20T05:46:40.298Z,99.90
2018-06-20T05:47:44.316Z,99.90
2018-06-20T05:48:48.628Z,99.90
2018-06-20T05:49:52.603Z,99.90
2018-06-20T05:50:56.641Z,99.90
2018-06-20T05:52:00.718Z,99.90
2018-06-20T05:53:04.819Z,99.90
2018-06-20T05:54:08.923Z,99.90
2018-06-20T05:55:12.959Z,99.90
2018-06-20T05:56:17.070Z,99.90
2018-06-20T05:57:21.082Z,99.90
2018-06-20T05:58:25.209Z,99.90
2018-06-20T05:59:29.247Z,99.90
2018-06-20T06:01:36.914Z,99.90
2018-06-20T06:02:40.970Z,99.90
2018-06-20T06:03:44.990Z,99.90
2018-06-20T06:04:48.995Z,99.90
2018-06-20T06:06:13.098Z,99.90
2018-06-20T06:07:17.107Z,99.80
2018-06-20T06:08:21.106Z,99.70
2018-06-20T06:09:25.136Z,99.60
2018-06-20T06:10:29.114Z,99.40
2018-06-20T06:11:33.117Z,99.30
2018-06-20T06:12:37.138Z,99.30
2018-06-20T06:13:41.182Z,99.30
2018-06-20T06:14:45.238Z,99.30
2018-06-20T06:15:49.245Z,99.20
2018-06-20T06:16:53.327Z,99.20
2018-06-20T06:17:57.321Z,99.20
2018-06-20T06:19:01.316Z,99.50
2018-06-20T06:20:06.069Z,99.50
2018-06-20T06:21:10.134Z,99.20
2018-06-20T06:22:14.174Z,99.20
2018-06-20T06:23:18.275Z,99.30
2018-06-20T06:24:22.369Z,99.30
2018-06-20T06:25:26.424Z,99.20
2018-06-20T06:26:30.498Z,99.30
2018-06-20T06:27:34.552Z,99.30
2018-06-20T06:28:38.561Z,99.20
2018-06-20T06:29:42.611Z,99.10
2018-06-20T06:30:46.631Z,99.10
2018-06-20T06:31:50.686Z,99.00
2018-06-20T06:32:54.699Z,98.90
2018-06-20T06:33:58.911Z,98.90
2018-06-20T06:35:02.915Z,98.80
2018-06-20T06:36:06.950Z,98.70
2018-06-20T06:37:10.968Z,99.10
2018-06-20T06:38:14.967Z,98.80
2018-06-20T06:39:19.031Z,98.90
2018-06-20T06:40:23.047Z,98.60
2018-06-20T06:41:27.066Z,98.80
2018-06-20T06:42:31.103Z,98.50
2018-06-20T06:43:35.061Z,98.30
2018-06-20T06:44:39.055Z,98.70
2018-06-20T06:45:43.074Z,98.40
2018-06-20T06:46:47.141Z,98.30
2018-06-20T06:47:51.166Z,98.30
2018-06-20T06:48:55.235Z,98.40
2018-06-20T06:49:59.368Z,98.40
2018-06-20T06:51:03.269Z,98.70
2018-06-20T06:52:07.330Z,98.40
2018-06-20T06:53:11.384Z,98.30
2018-06-20T06:54:15.391Z,98.40
2018-06-20T06:55:19.539Z,98.40
2018-06-20T06:56:23.576Z,98.80
2018-06-20T06:57:27.622Z,98.20
2018-06-20T06:58:31.816Z,98.30
2018-06-20T06:59:35.833Z,98.10
2018-06-20T07:00:39.881Z,98.30
2018-06-20T07:01:44.230Z,97.80
2018-06-20T07:02:48.322Z,97.70
2018-06-20T07:03:52.316Z,97.90
2018-06-20T07:04:56.311Z,97.50
2018-06-20T07:06:00.339Z,97.50
2018-06-20T07:07:04.338Z,97.50
2018-06-20T07:08:08.412Z,97.50
2018-06-20T07:09:12.456Z,97.50
2018-06-20T07:10:16.512Z,97.50
2018-06-20T07:11:20.586Z,97.40
2018-06-20T07:12:24.738Z,97.40
2018-06-20T07:13:28.726Z,97.30
2018-06-20T07:14:32.764Z,97.10
2018-06-20T07:15:36.793Z,97.00
2018-06-20T07:16:40.850Z,96.90
2018-06-20T07:17:44.890Z,96.80
2018-06-20T07:18:48.917Z,97.00
2018-06-20T07:19:52.995Z,96.60
2018-06-20T07:20:57.066Z,96.30
2018-06-20T07:22:01.063Z,96.40
2018-06-20T07:23:05.119Z,96.40
2018-06-20T07:24:09.163Z,96.40
2018-06-20T07:25:13.113Z,96.40
2018-06-20T07:26:17.121Z,96.40
2018-06-20T07:27:21.241Z,96.30
2018-06-20T07:28:25.273Z,96.10
2018-06-20T07:29:29.321Z,95.90
2018-06-20T07:30:33.422Z,95.80
2018-06-20T07:31:37.429Z,95.80
2018-06-20T07:32:41.421Z,95.70
2018-06-20T07:33:45.453Z,95.60
2018-06-20T07:34:49.536Z,95.40
2018-06-20T07:35:53.621Z,95.40
2018-06-20T07:36:57.570Z,95.60
2018-06-20T07:38:01.586Z,95.40
2018-06-20T07:39:06.920Z,95.40
2018-06-20T07:40:11.187Z,95.50
2018-06-20T07:41:15.384Z,95.40
2018-06-20T07:42:19.776Z,95.40
2018-06-20T07:43:23.815Z,95.50
2018-06-20T07:44:27.811Z,95.60
2018-06-20T07:45:31.821Z,95.80
2018-06-20T07:46:36.032Z,95.90
2018-06-20T07:47:40.034Z,95.60
2018-06-20T07:48:44.153Z,95.50
2018-06-20T07:49:48.267Z,95.40
2018-06-20T07:50:52.259Z,95.10
2018-06-20T07:51:56.276Z,95.00
2018-06-20T07:53:00.296Z,94.90
2018-06-20T07:54:04.351Z,95.00
2018-06-20T07:55:08.397Z,95.00
2018-06-20T07:56:12.467Z,95.10
2018-06-20T07:57:16.563Z,95.20
2018-06-20T07:58:25.969Z,95.30
2018-06-20T07:59:35.574Z,95.20
2018-06-20T08:00:44.957Z,94.90
2018-06-20T08:02:05.768Z,94.80
2018-06-20T08:03:18.579Z,95.00
2018-06-20T08:04:27.927Z,95.00
2018-06-20T08:05:37.367Z,94.90
2018-06-20T08:06:46.914Z,94.80
2018-06-20T08:07:56.506Z,94.70
2018-06-20T08:09:05.854Z,94.80
2018-06-20T08:11:19.013Z,95.00
2018-06-20T08:12:28.406Z,94.60
2018-06-20T08:13:37.741Z,94.30
2018-06-20T08:14:47.168Z,94.40
2018-06-20T08:15:56.618Z,94.30
2018-06-20T08:17:04.400Z,94.30
2018-06-20T08:19:14.916Z,94.40
2018-06-20T08:20:19.971Z,94.40
2018-06-20T08:21:24.027Z,94.70
2018-06-20T08:22:28.795Z,94.70
2018-06-20T08:23:33.002Z,94.60
2018-06-20T08:24:42.104Z,94.50
2018-06-20T08:25:46.747Z,94.30
2018-06-20T08:26:50.786Z,94.10
2018-06-20T08:27:54.821Z,93.90
2018-06-20T08:28:58.885Z,93.70
2018-06-20T08:31:07.938Z,93.60
2018-06-20T08:32:11.970Z,93.60
2018-06-20T08:33:16.051Z,93.60
2018-06-20T08:34:20.073Z,93.60
2018-06-20T08:35:24.047Z,93.80
2018-06-20T08:36:28.072Z,93.70
2018-06-20T08:37:32.169Z,93.60
2018-06-20T08:38:36.203Z,93.70
2018-06-20T08:39:40.437Z,93.70
2018-06-20T08:40:44.502Z,93.70
2018-06-20T08:41:48.890Z,93.60
2018-06-20T08:42:52.878Z,93.60
2018-06-20T08:43:56.963Z,93.70
2018-06-20T08:45:00.987Z,93.20
2018-06-20T08:46:05.082Z,93.20
2018-06-20T08:47:09.142Z,93.20
2018-06-20T08:48:13.191Z,93.40
2018-06-20T08:49:17.246Z,93.00
2018-06-20T08:50:21.233Z,93.00
2018-06-20T08:51:25.272Z,92.90
2018-06-20T08:52:29.414Z,92.60
2018-06-20T08:53:33.437Z,92.40
2018-06-20T08:54:37.493Z,92.40
2018-06-20T08:55:41.552Z,92.50
2018-06-20T08:56:45.606Z,92.70
2018-06-20T08:57:49.652Z,92.70
2018-06-20T08:58:53.743Z,92.70
2018-06-20T08:59:57.745Z,92.90
2018-06-20T09:01:02.872Z,92.50
2018-06-20T09:02:07.038Z,91.50
2018-06-20T09:03:11.116Z,91.60
2018-06-20T09:04:20.513Z,91.50
2018-06-20T09:05:29.923Z,91.30
2018-06-20T09:06:39.197Z,91.20
2018-06-20T09:07:48.567Z,91.00
2018-06-20T09:08:57.910Z,90.90
2018-06-20T09:10:07.452Z,91.00
2018-06-20T09:11:16.772Z,90.90
2018-06-20T09:12:26.114Z,90.40
2018-06-20T09:13:35.509Z,90.50
2018-06-20T09:14:44.975Z,90.50
2018-06-20T09:15:54.465Z,90.60
2018-06-20T09:17:03.900Z,90.40
2018-06-20T09:18:13.622Z,90.40
2018-06-20T09:19:23.183Z,90.10
2018-06-20T09:20:27.201Z,90.00
2018-06-20T09:21:31.181Z,89.50
2018-06-20T09:22:35.209Z,89.20
2018-06-20T09:24:42.934Z,88.10
2018-06-20T09:25:47.024Z,88.40
2018-06-20T09:26:51.089Z,89.20
2018-06-20T09:28:58.785Z,89.00
2018-06-20T09:30:02.839Z,89.00
2018-06-20T09:31:06.922Z,88.80
2018-06-20T09:32:11.340Z,88.60
2018-06-20T09:33:15.413Z,87.90
2018-06-20T09:34:19.531Z,88.20
2018-06-20T09:35:23.626Z,88.20
2018-06-20T09:36:28.834Z,87.70
2018-06-20T09:37:32.855Z,88.10
2018-06-20T09:38:36.905Z,88.50
2018-06-20T09:39:40.950Z,88.20
2018-06-20T09:40:44.937Z,88.20
2018-06-20T09:41:49.022Z,88.00
2018-06-20T09:42:53.075Z,87.90
2018-06-20T09:43:57.250Z,87.90
2018-06-20T09:45:01.284Z,87.80
2018-06-20T09:46:05.318Z,87.80
2018-06-20T09:47:09.429Z,86.80
2018-06-20T09:48:13.762Z,86.50
2018-06-20T09:49:17.822Z,86.00
2018-06-20T09:50:27.214Z,86.50
2018-06-20T09:51:31.235Z,87.00
2018-06-20T09:52:35.321Z,87.30
2018-06-20T09:53:39.347Z,86.90
2018-06-20T09:54:43.438Z,86.90
2018-06-20T09:55:47.479Z,86.80
2018-06-20T09:56:51.535Z,87.10
2018-06-20T09:57:55.580Z,87.40
2018-06-20T09:59:03.874Z,87.40
2018-06-20T10:00:13.448Z,87.30
2018-06-20T10:01:22.822Z,87.50
2018-06-20T10:02:32.154Z,87.00
2018-06-20T10:03:41.594Z,87.60
2018-06-20T10:04:51.007Z,87.50
2018-06-20T10:06:00.279Z,87.80
2018-06-20T10:07:09.702Z,87.60
2018-06-20T10:08:19.039Z,87.30
2018-06-20T10:09:28.410Z,87.40
2018-06-20T10:10:37.839Z,88.00
2018-06-20T10:11:47.324Z,87.30
2018-06-20T10:12:56.869Z,87.30
2018-06-20T10:14:01.979Z,87.70
2018-06-20T10:15:06.030Z,87.40
2018-06-20T10:16:10.061Z,87.40
2018-06-20T10:17:14.136Z,87.80
2018-06-20T10:18:18.201Z,87.90
2018-06-20T10:19:22.254Z,87.60
2018-06-20T10:20:28.403Z,86.90
2018-06-20T10:21:32.435Z,87.20
2018-06-20T10:22:36.466Z,87.40
2018-06-20T10:23:40.689Z,87.40
2018-06-20T10:24:44.775Z,86.70
2018-06-20T10:25:48.829Z,87.10
2018-06-20T10:26:52.817Z,87.00
2018-06-20T10:27:57.304Z,86.80
2018-06-20T10:29:01.302Z,87.00
2018-06-20T10:30:05.378Z,86.30
2018-06-20T10:31:09.431Z,86.70
2018-06-20T10:32:13.394Z,87.20
2018-06-20T10:33:17.474Z,87.40
2018-06-20T10:34:21.510Z,87.40
2018-06-20T10:35:25.515Z,87.50
2018-06-20T10:36:29.654Z,87.30
2018-06-20T10:37:33.626Z,87.40
2018-06-20T10:38:37.652Z,87.60
2018-06-20T10:39:41.615Z,87.40
2018-06-20T10:40:45.623Z,87.20
2018-06-20T10:41:49.618Z,87.10
2018-06-20T10:42:53.702Z,87.30
2018-06-20T10:43:57.728Z,87.40
2018-06-20T10:45:07.127Z,86.50
2018-06-20T10:46:16.531Z,86.60
2018-06-20T10:47:26.068Z,86.90
2018-06-20T10:48:30.049Z,87.40
2018-06-20T10:49:34.114Z,87.50
2018-06-20T10:50:38.151Z,87.00
2018-06-20T10:51:42.666Z,86.60
2018-06-20T10:52:46.647Z,86.30
2018-06-20T10:53:50.698Z,85.80
2018-06-20T10:54:54.762Z,85.20
2018-06-20T10:55:58.803Z,84.90
2018-06-20T10:57:08.140Z,85.20
2018-06-20T10:58:17.644Z,85.60
2018-06-20T10:59:27.038Z,86.30
2018-06-20T11:00:36.509Z,85.40
2018-06-20T11:01:45.721Z,85.20
2018-06-20T11:02:55.131Z,85.00
2018-06-20T11:04:04.540Z,85.10
2018-06-20T11:05:14.032Z,84.90
2018-06-20T11:06:23.611Z,85.00
2018-06-20T11:07:33.102Z,85.90
2018-06-20T11:08:42.447Z,85.00
2018-06-20T11:09:51.990Z,85.30
2018-06-20T11:11:01.579Z,84.10
2018-06-20T11:12:11.039Z,84.60
2018-06-20T11:13:15.978Z,85.10
2018-06-20T11:14:19.981Z,84.60
2018-06-20T11:15:24.174Z,85.20
2018-06-20T11:16:28.148Z,84.40
2018-06-20T11:17:32.139Z,84.10
2018-06-20T11:18:39.089Z,84.10
2018-06-20T11:19:43.136Z,83.50
2018-06-20T11:20:52.482Z,84.10
2018-06-20T11:21:56.472Z,84.20
2018-06-20T11:23:00.798Z,84.00
2018-06-20T11:24:04.828Z,83.60
2018-06-20T11:25:08.916Z,84.40
2018-06-20T11:26:12.929Z,83.60
2018-06-20T11:27:16.938Z,83.30
2018-06-20T11:28:21.024Z,83.60
2018-06-20T11:29:25.091Z,84.20
2018-06-20T11:30:29.133Z,84.00
2018-06-20T11:31:33.083Z,84.20
2018-06-20T11:32:37.119Z,82.90
2018-06-20T11:33:41.115Z,82.10
2018-06-20T11:34:45.153Z,82.00
2018-06-20T11:35:49.203Z,82.30
2018-06-20T11:36:53.315Z,82.40
2018-06-20T11:37:57.455Z,82.60
2018-06-20T11:39:01.514Z,83.50
2018-06-20T11:40:05.513Z,83.80
2018-06-20T11:41:09.500Z,83.60
2018-06-20T11:42:13.529Z,84.30
2018-06-20T11:43:17.602Z,83.80
2018-06-20T11:44:21.621Z,83.80
2018-06-20T11:45:29.857Z,82.70
2018-06-20T11:46:39.316Z,81.90
2018-06-20T11:47:44.682Z,81.70
2018-06-20T11:48:48.713Z,81.20
2018-06-20T11:49:52.807Z,81.40
2018-06-20T11:50:56.798Z,81.60
2018-06-20T11:52:00.898Z,81.30
2018-06-20T11:53:07.438Z,80.00
2018-06-20T11:54:11.648Z,81.80
2018-06-20T11:55:21.276Z,81.90
2018-06-20T11:56:25.297Z,81.70
2018-06-20T11:57:29.383Z,81.50
2018-06-20T11:58:38.934Z,81.10
2018-06-20T11:59:48.347Z,81.30
2018-06-20T12:00:57.712Z,81.10
2018-06-20T12:02:07.036Z,80.80
2018-06-20T12:03:16.446Z,81.00
2018-06-20T12:05:26.141Z,81.70
2018-06-20T12:06:35.529Z,81.60
2018-06-20T12:08:45.915Z,80.60
2018-06-20T12:09:55.272Z,81.00
2018-06-20T12:11:04.605Z,81.90
2018-06-20T12:12:14.277Z,82.80
2018-06-20T12:13:23.599Z,82.10
2018-06-20T12:14:32.829Z,82.80
2018-06-20T12:15:42.213Z,82.50
2018-06-20T12:16:48.295Z,82.10
2018-06-20T12:17:57.667Z,81.90
2018-06-20T12:19:07.033Z,81.90
2018-06-20T12:20:16.493Z,82.70
2018-06-20T12:21:26.018Z,82.60
2018-06-20T12:22:35.437Z,81.70
2018-06-20T12:23:44.813Z,82.00
2018-06-20T12:24:54.273Z,82.00
2018-06-20T12:26:03.664Z,82.90
2018-06-20T12:27:12.991Z,82.40
2018-06-20T12:28:22.408Z,79.90
2018-06-20T12:29:31.783Z,79.20
2018-06-20T12:30:41.311Z,79.80
2018-06-20T12:31:50.918Z,79.40
2018-06-20T12:33:00.328Z,80.50
2018-06-20T12:34:09.675Z,82.10
2018-06-20T12:35:19.250Z,80.30
2018-06-20T12:36:28.889Z,80.20
2018-06-20T12:37:38.537Z,79.80
2018-06-20T12:38:47.810Z,79.90
2018-06-20T12:39:56.094Z,79.30
2018-06-20T12:41:02.074Z,79.30
2018-06-20T12:42:11.544Z,78.90
2018-06-20T12:43:21.191Z,79.40
2018-06-20T12:44:30.346Z,80.90
2018-06-20T12:45:34.390Z,79.20
2018-06-20T12:46:58.447Z,80.20
2018-06-20T12:48:02.389Z,80.10
2018-06-20T12:49:06.708Z,78.90
2018-06-20T12:50:18.898Z,78.70
2018-06-20T12:51:22.923Z,77.80
2018-06-20T12:52:27.155Z,78.60
2018-06-20T12:53:31.159Z,77.20
2018-06-20T12:54:35.135Z,77.30
2018-06-20T12:55:39.181Z,77.50
2018-06-20T12:56:43.167Z,78.00
2018-06-20T12:57:47.186Z,77.20
2018-06-20T12:58:51.336Z,75.60
2018-06-20T12:59:55.370Z,75.50
2018-06-20T13:02:03.087Z,77.00
2018-06-20T13:03:07.102Z,75.90
2018-06-20T13:04:11.131Z,75.50
2018-06-20T13:05:15.525Z,75.50
2018-06-20T13:06:19.549Z,74.80
2018-06-20T13:07:23.555Z,75.60
2018-06-20T13:08:27.568Z,76.50
2018-06-20T13:09:31.596Z,74.40
2018-06-20T13:10:35.569Z,73.90
2018-06-20T13:11:39.655Z,73.90
2018-06-20T13:12:43.996Z,73.50
2018-06-20T13:14:51.646Z,72.30
2018-06-20T13:15:55.626Z,71.50
2018-06-20T13:16:59.696Z,71.30
2018-06-20T13:18:03.767Z,71.50
2018-06-20T13:19:07.825Z,72.40
2018-06-20T13:20:11.932Z,72.40
2018-06-20T13:21:15.883Z,72.40
2018-06-20T13:22:19.946Z,72.30
2018-06-20T13:23:24.003Z,71.50
2018-06-20T13:24:28.011Z,71.40
2018-06-20T13:25:33.299Z,70.20
2018-06-20T13:26:37.335Z,69.80
2018-06-20T13:27:46.264Z,71.40
2018-06-20T13:28:50.493Z,68.70
2018-06-20T13:29:59.974Z,68.90
2018-06-20T13:31:09.322Z,68.90
2018-06-20T13:32:18.839Z,68.50
2018-06-20T13:33:28.257Z,68.20
2018-06-20T13:34:37.650Z,67.90
2018-06-20T13:35:46.994Z,67.60
2018-06-20T13:36:56.422Z,67.70
2018-06-20T13:38:05.879Z,67.80
2018-06-20T13:39:15.262Z,67.20
2018-06-20T13:40:24.612Z,67.20
2018-06-20T13:41:32.851Z,66.40
2018-06-20T13:42:42.444Z,67.40
2018-06-20T13:43:51.902Z,66.80
2018-06-20T13:45:00.139Z,65.90
2018-06-20T13:46:09.526Z,65.80
2018-06-20T13:48:29.238Z,65.80
2018-06-20T13:49:33.341Z,65.00
2018-06-20T13:50:37.391Z,64.00
2018-06-20T13:51:41.447Z,63.80
2018-06-20T13:52:45.456Z,62.60
2018-06-20T13:53:49.456Z,63.00
2018-06-20T13:54:53.539Z,63.50
2018-06-20T13:55:57.551Z,63.30
2018-06-20T13:57:01.569Z,63.20
2018-06-20T13:58:05.770Z,62.50
2018-06-20T13:59:09.807Z,62.50
2018-06-20T14:00:13.873Z,62.20
2018-06-20T14:01:17.910Z,62.90
2018-06-20T14:02:21.931Z,62.20
2018-06-20T14:03:26.022Z,61.20
2018-06-20T14:04:30.043Z,61.00
2018-06-20T14:05:34.071Z,60.60
2018-06-20T14:06:38.050Z,60.10
2018-06-20T14:07:42.082Z,60.40
2018-06-20T14:08:46.649Z,59.40
2018-06-20T14:10:54.348Z,59.80
2018-06-20T14:11:58.371Z,59.60
2018-06-20T14:13:02.420Z,58.60
2018-06-20T14:14:06.489Z,58.70
2018-06-20T14:15:10.565Z,58.60
2018-06-20T14:16:14.687Z,58.80
2018-06-20T14:18:22.426Z,59.10
2018-06-20T14:20:34.638Z,58.00
2018-06-20T14:21:40.145Z,57.50